Time;durP1;ratioP1;P1;durP2;ratioP2;P2;SDS_P1;SDS_P2;PMS_P1;PMS_P2;Temp;Humidity;BMP_temperature;BMP_pressure;BME280_temperature;BME280_humidity;BME280_pressure;Samples;Min_cycle;Max_cycle;Signal;HPM_P1;HPM_P2
2023/07/08 00:01:17;;;;;;;4.97;4.28;;;24.70;50.00;;;;;;5048203;28;20040;-85
2023/07/08 00:03:43;;;;;;;6.63;4.55;;;24.60;50.00;;;;;;5053493;28;20874;-84
2023/07/08 00:06:14;;;;;;;5.88;4.72;;;24.60;50.10;;;;;;5037819;28;20040;-82
2023/07/08 00:08:40;;;;;;;4.80;4.25;;;24.60;50.20;;;;;;5009200;28;21022;-82
2023/07/08 00:11:13;;;;;;;6.07;4.03;;;24.50;50.10;;;;;;5056130;28;20052;-82
2023/07/08 00:13:40;;;;;;;6.13;5.03;;;24.50;50.30;;;;;;5046501;28;20458;-82
2023/07/08 00:16:18;;;;;;;5.22;4.43;;;24.50;50.30;;;;;;5040768;28;20810;-81
2023/07/08 00:18:50;;;;;;;5.35;4.60;;;24.50;50.50;;;;;;5041216;28;20040;-81
2023/07/08 00:21:17;;;;;;;5.25;4.75;;;24.40;50.30;;;;;;5032891;28;20029;-82
2023/07/08 00:23:48;;;;;;;5.80;4.93;;;24.40;50.40;;;;;;5041772;28;20400;-82
2023/07/08 00:26:20;;;;;;;4.18;3.78;;;24.40;50.50;;;;;;5049360;28;20040;-82
2023/07/08 00:28:46;;;;;;;5.32;4.15;;;24.40;50.60;;;;;;5042753;28;20496;-82
2023/07/08 00:31:13;;;;;;;6.78;5.28;;;24.30;50.40;;;;;;5041601;28;20056;-82
2023/07/08 00:33:41;;;;;;;5.30;4.32;;;24.30;50.50;;;;;;5047473;28;20403;-81
2023/07/08 00:36:15;;;;;;;4.43;4.03;;;24.30;50.70;;;;;;5050927;28;20052;-81
2023/07/08 00:38:44;;;;;;;4.38;3.97;;;24.20;50.60;;;;;;5050418;28;20037;-81
2023/07/08 00:41:21;;;;;;;5.00;4.32;;;24.20;50.60;;;;;;5039753;28;20520;-81
2023/07/08 00:43:52;;;;;;;5.38;4.80;;;24.20;50.70;;;;;;5054890;28;20048;-81
2023/07/08 00:46:23;;;;;;;;;;;24.20;50.70;;;;;;5031208;28;20021;-81
2023/07/08 00:48:52;;;;;;;6.10;4.82;;;24.20;50.60;;;;;;5047083;28;19921;-80
2023/07/08 00:51:19;;;;;;;5.53;4.40;;;24.20;50.60;;;;;;5018390;28;20626;-80
2023/07/08 00:53:46;;;;;;;5.50;4.85;;;24.10;50.60;;;;;;5036857;28;20056;-82
2023/07/08 00:56:35;;;;;;;6.03;4.50;;;24.10;50.70;;;;;;5039707;28;20036;-82
2023/07/08 00:59:17;;;;;;;6.50;4.32;;;24.10;50.90;;;;;;5044915;28;20413;-85
2023/07/08 01:01:48;;;;;;;4.97;4.25;;;24.10;51.00;;;;;;5049365;28;20037;-86
2023/07/08 01:04:28;;;;;;;4.82;4.43;;;24.00;50.80;;;;;;5053738;28;20036;-85
2023/07/08 01:07:03;;;;;;;5.93;4.40;;;24.00;51.00;;;;;;5048365;28;20112;-84
2023/07/08 01:09:42;;;;;;;4.82;4.32;;;24.00;51.10;;;;;;5053395;28;20045;-83
2023/07/08 01:12:17;;;;;;;4.85;4.22;;;24.00;51.20;;;;;;5039021;28;20032;-82
2023/07/08 01:14:45;;;;;;;4.07;3.67;;;23.90;51.20;;;;;;5038818;28;20029;-83
2023/07/08 01:17:13;;;;;;;4.28;3.88;;;23.90;51.30;;;;;;5036885;28;20028;-83
2023/07/08 01:19:41;;;;;;;4.50;4.10;;;23.90;51.50;;;;;;5056644;28;20040;-83
2023/07/08 01:22:07;;;;;;;5.43;3.97;;;23.90;51.60;;;;;;5053389;28;20704;-82
2023/07/08 01:24:40;;;;;;;4.57;4.00;;;23.90;51.80;;;;;;5058321;28;20042;-82
2023/07/08 01:27:11;;;;;;;4.47;3.97;;;23.90;51.90;;;;;;5018925;28;20029;-83
2023/07/08 01:29:37;;;;;;;4.22;3.83;;;23.90;52.00;;;;;;5036773;28;20117;-83
2023/07/08 01:32:05;;;;;;;4.28;3.88;;;23.90;52.10;;;;;;5041670;28;20041;-83
2023/07/08 01:34:32;;;;;;;4.13;3.75;;;23.90;52.20;;;;;;5046774;28;20029;-82
2023/07/08 01:37:01;;;;;;;4.32;3.92;;;23.90;52.40;;;;;;5042757;28;20029;-82
2023/07/08 01:39:32;;;;;;;5.38;3.92;;;23.90;52.50;;;;;;5034281;28;20473;-82
2023/07/08 01:42:01;;;;;;;3.83;3.42;;;23.80;52.40;;;;;;5034654;28;20036;-83
2023/07/08 01:44:35;;;;;;;4.30;3.70;;;23.80;52.50;;;;;;5043216;28;20056;-83
2023/07/08 01:47:16;;;;;;;5.47;3.80;;;23.80;52.70;;;;;;5040207;28;20197;-82
2023/07/08 01:49:45;;;;;;;4.13;3.72;;;23.80;52.90;;;;;;5044834;28;20592;-83
2023/07/08 01:52:12;;;;;;;4.68;3.33;;;23.80;52.90;;;;;;5033090;28;20041;-83
2023/07/08 01:54:38;;;;;;;4.00;3.60;;;23.70;52.90;;;;;;5026405;28;20069;-83
2023/07/08 01:57:05;;;;;;;4.22;3.83;;;23.70;53.00;;;;;;5045426;28;20029;-82
2023/07/08 01:59:31;;;;;;;4.28;3.70;;;23.70;53.10;;;;;;5039204;28;20064;-82
2023/07/08 02:01:58;;;;;;;4.22;3.83;;;23.70;53.30;;;;;;5010830;28;20036;-82
2023/07/08 02:04:30;;;;;;;4.03;3.63;;;23.70;53.40;;;;;;5027424;28;20241;-82
2023/07/08 02:06:58;;;;;;;4.60;4.20;;;23.70;53.40;;;;;;5045186;28;20514;-83
2023/07/08 02:09:25;;;;;;;4.15;3.75;;;23.70;53.50;;;;;;5037472;28;20133;-82
2023/07/08 02:11:55;;;;;;;4.45;3.42;;;23.70;53.60;;;;;;5028621;28;20036;-82
2023/07/08 02:14:22;;;;;;;5.00;4.35;;;23.60;53.40;;;;;;5033119;28;20044;-82
2023/07/08 02:16:49;;;;;;;3.85;3.45;;;23.60;53.40;;;;;;5055273;28;20399;-82
2023/07/08 02:19:16;;;;;;;3.63;3.33;;;23.60;53.50;;;;;;5030611;28;20463;-82
2023/07/08 02:21:42;;;;;;;4.38;3.97;;;23.60;53.60;;;;;;5015601;28;20111;-81
2023/07/08 02:24:12;;;;;;;3.50;3.20;;;23.50;53.50;;;;;;5031172;28;20025;-83
2023/07/08 02:26:38;;;;;;;4.25;3.85;;;23.50;53.50;;;;;;5044739;28;20484;-83
2023/07/08 02:29:05;;;;;;;4.43;3.45;;;23.50;53.60;;;;;;5046441;28;20510;-82
2023/07/08 02:31:31;;;;;;;3.80;3.40;;;23.50;53.60;;;;;;5037987;28;20605;-82
2023/07/08 02:34:02;;;;;;;3.70;3.40;;;23.50;53.80;;;;;;5040982;28;20501;-82
2023/07/08 02:36:28;;;;;;;4.18;3.88;;;23.50;53.80;;;;;;5031143;28;20108;-82
2023/07/08 02:38:54;;;;;;;4.65;4.25;;;23.40;53.70;;;;;;5042757;28;20032;-82
2023/07/08 02:41:23;;;;;;;4.22;3.80;;;23.40;53.80;;;;;;5046527;28;20029;-83
2023/07/08 02:43:49;;;;;;;4.10;3.70;;;23.40;53.90;;;;;;5041440;28;20029;-82
2023/07/08 02:46:15;;;;;;;4.20;3.80;;;23.40;53.90;;;;;;5042048;28;20112;-82
2023/07/08 02:48:42;;;;;;;4.32;3.92;;;23.40;54.00;;;;;;5039113;28;20037;-82
2023/07/08 02:51:08;;;;;;;3.92;3.47;;;23.30;53.80;;;;;;5033576;28;20043;-82
2023/07/08 02:53:35;;;;;;;4.03;3.65;;;23.30;53.90;;;;;;5044854;28;20033;-83
2023/07/08 02:56:02;;;;;;;4.10;3.70;;;23.30;53.90;;;;;;5018455;28;20037;-82
2023/07/08 02:58:29;;;;;;;6.25;3.58;;;23.30;54.00;;;;;;5035607;28;20532;-82
2023/07/08 03:01:00;;;;;;;3.92;3.53;;;23.30;54.10;;;;;;5032620;28;20145;-82
2023/07/08 03:03:29;;;;;;;3.93;3.50;;;23.20;54.00;;;;;;5034640;28;20036;-82
2023/07/08 03:06:00;;;;;;;3.97;3.38;;;23.20;54.10;;;;;;5047612;28;20025;-82
2023/07/08 03:08:27;;;;;;;3.92;3.53;;;23.20;54.20;;;;;;5036035;28;20048;-83
2023/07/08 03:11:05;;;;;;;4.53;3.55;;;23.10;54.10;;;;;;5027348;28;20090;-84
2023/07/08 03:13:33;;;;;;;5.13;4.07;;;23.10;54.40;;;;;;5044917;28;20021;-82
2023/07/08 03:16:01;;;;;;;5.00;3.30;;;23.10;54.30;;;;;;5038952;28;20594;-82
2023/07/08 03:18:29;;;;;;;3.65;3.08;;;23.10;54.50;;;;;;5047895;28;20300;-83
2023/07/08 03:20:57;;;;;;;5.47;4.38;;;23.10;54.60;;;;;;5035921;28;20050;-82
2023/07/08 03:23:27;;;;;;;4.13;3.60;;;23.10;54.80;;;;;;5031152;28;20032;-82
2023/07/08 03:25:53;;;;;;;4.07;3.70;;;23.10;54.90;;;;;;5033901;28;20613;-81
2023/07/08 03:28:20;;;;;;;4.22;3.47;;;23.00;54.80;;;;;;5041166;28;20025;-80
2023/07/08 03:30:52;;;;;;;3.85;3.45;;;23.00;55.00;;;;;;5035051;28;20036;-81
2023/07/08 03:33:18;;;;;;;3.47;3.17;;;23.00;55.20;;;;;;5031843;28;20060;-81
2023/07/08 03:35:45;;;;;;;3.88;3.10;;;23.00;55.30;;;;;;5028348;28;20040;-81
2023/07/08 03:38:11;;;;;;;4.78;3.28;;;23.00;55.60;;;;;;5044701;28;20447;-80
2023/07/08 03:40:37;;;;;;;3.50;3.20;;;23.00;55.60;;;;;;5041548;28;20115;-80
2023/07/08 03:43:03;;;;;;;4.78;3.58;;;23.00;55.70;;;;;;5044103;28;20472;-81
2023/07/08 03:45:31;;;;;;;3.92;2.90;;;23.00;55.80;;;;;;5033655;28;20153;-81
2023/07/08 03:47:58;;;;;;;4.15;3.75;;;23.00;55.90;;;;;;5038545;28;20159;-83
2023/07/08 03:50:26;;;;;;;4.57;4.18;;;23.00;56.00;;;;;;5049005;28;20036;-81
2023/07/08 03:52:54;;;;;;;4.18;3.70;;;23.00;56.00;;;;;;5053610;28;20075;-83
2023/07/08 03:55:22;;;;;;;3.42;3.00;;;23.00;56.10;;;;;;5037553;28;20029;-83
2023/07/08 03:57:48;;;;;;;3.90;3.50;;;23.00;56.10;;;;;;5045909;28;20110;-82
2023/07/08 04:00:15;;;;;;;3.85;3.28;;;23.00;56.10;;;;;;5028543;28;20037;-82
2023/07/08 04:02:42;;;;;;;4.00;3.60;;;23.00;56.10;;;;;;5053088;28;20480;-81
2023/07/08 04:05:17;;;;;;;4.47;3.60;;;23.00;56.20;;;;;;5028286;28;20481;-82
2023/07/08 04:07:43;;;;;;;4.18;3.22;;;23.00;56.20;;;;;;5048509;28;20661;-82
2023/07/08 04:10:10;;;;;;;4.68;3.60;;;23.00;56.20;;;;;;5047676;28;20040;-81
2023/07/08 04:12:36;;;;;;;4.50;3.20;;;23.00;56.30;;;;;;5048801;28;20035;-82
2023/07/08 04:15:09;;;;;;;5.40;4.07;;;23.10;56.40;;;;;;5057453;28;20120;-81
2023/07/08 04:17:48;;;;;;;4.40;3.65;;;23.10;56.50;;;;;;5053642;28;20032;-82
2023/07/08 04:20:18;;;;;;;5.60;3.67;;;23.10;56.50;;;;;;5048823;28;20089;-82
2023/07/08 04:22:44;;;;;;;3.25;2.95;;;23.10;56.40;;;;;;5053721;28;20036;-82
2023/07/08 04:25:12;;;;;;;4.90;3.70;;;23.10;56.30;;;;;;5053400;28;20102;-82
2023/07/08 04:27:39;;;;;;;4.70;2.83;;;23.10;56.40;;;;;;5046548;28;20510;-82
2023/07/08 04:30:06;;;;;;;4.50;4.00;;;23.10;56.40;;;;;;5031213;28;20392;-82
2023/07/08 04:32:32;;;;;;;4.10;3.42;;;23.10;56.30;;;;;;5049012;28;20052;-81
2023/07/08 04:34:58;;;;;;;4.43;2.85;;;23.10;56.20;;;;;;5036514;28;20041;-81
2023/07/08 04:37:24;;;;;;;5.10;3.25;;;23.10;56.30;;;;;;5030289;28;20048;-82
2023/07/08 04:39:51;;;;;;;3.55;3.00;;;23.20;56.50;;;;;;5054984;28;20060;-81
2023/07/08 04:42:17;;;;;;;4.63;3.55;;;23.20;56.40;;;;;;5047273;28;20035;-82
2023/07/08 04:44:44;;;;;;;5.85;3.47;;;23.20;56.30;;;;;;5054696;28;20044;-82
2023/07/08 04:47:13;;;;;;;4.50;3.97;;;23.30;56.40;;;;;;5056949;28;20134;-82
2023/07/08 04:49:43;;;;;;;3.58;3.28;;;23.30;56.40;;;;;;5057036;28;20048;-82
2023/07/08 04:52:09;;;;;;;4.15;3.75;;;23.30;56.30;;;;;;5044712;28;20100;-82
2023/07/08 04:54:39;;;;;;;4.32;3.67;;;23.30;56.20;;;;;;5053079;28;20133;-82
2023/07/08 04:57:05;;;;;;;5.30;3.75;;;23.40;56.30;;;;;;5038336;28;20029;-83
2023/07/08 04:59:34;;;;;;;4.13;3.50;;;23.40;56.30;;;;;;5044010;28;20037;-82
2023/07/08 05:02:00;;;;;;;3.38;3.08;;;23.50;56.30;;;;;;5044080;28;20033;-82
2023/07/08 05:04:26;;;;;;;3.13;2.88;;;23.50;56.30;;;;;;5044593;28;20572;-81
2023/07/08 05:06:52;;;;;;;4.55;3.90;;;23.50;56.30;;;;;;5053790;28;20036;-82
2023/07/08 05:09:18;;;;;;;3.90;3.28;;;23.50;56.20;;;;;;5050925;28;20028;-82
2023/07/08 05:11:44;;;;;;;3.28;2.88;;;23.50;56.10;;;;;;5054824;28;20033;-79
2023/07/08 05:14:12;;;;;;;4.72;3.35;;;23.50;56.20;;;;;;5057650;28;20119;-81
2023/07/08 05:16:38;;;;;;;4.13;3.72;;;23.50;56.10;;;;;;5015115;28;20159;-81
2023/07/08 05:19:04;;;;;;;3.65;2.95;;;23.60;56.30;;;;;;5052769;28;20123;-81
2023/07/08 05:21:33;;;;;;;3.92;3.40;;;23.60;56.30;;;;;;5056396;28;20033;-80
2023/07/08 05:24:00;;;;;;;3.53;3.22;;;23.60;56.30;;;;;;5034549;28;20585;-80
2023/07/08 05:26:26;;;;;;;3.42;3.13;;;23.60;56.30;;;;;;5054441;28;20048;-80
2023/07/08 05:28:52;;;;;;;6.03;3.95;;;23.50;56.10;;;;;;5052897;28;20313;-80
2023/07/08 05:31:18;;;;;;;4.53;3.45;;;23.60;56.30;;;;;;5032484;28;20032;-80
2023/07/08 05:33:44;;;;;;;4.53;3.58;;;23.50;56.20;;;;;;5046753;28;20557;-80
2023/07/08 05:36:10;;;;;;;5.35;4.32;;;23.50;56.20;;;;;;5051377;28;20119;-80
2023/07/08 05:38:36;;;;;;;5.13;3.83;;;23.50;56.20;;;;;;5023346;28;20784;-80
2023/07/08 05:41:02;;;;;;;4.80;4.30;;;23.50;56.20;;;;;;5024514;28;20214;-80
2023/07/08 05:43:28;;;;;;;4.97;4.10;;;23.50;56.30;;;;;;5034770;28;20522;-81
2023/07/08 05:46:01;;;;;;;3.92;3.50;;;23.50;56.30;;;;;;5030061;28;20216;-80
2023/07/08 05:48:28;;;;;;;4.85;3.45;;;23.50;56.30;;;;;;5028981;28;20508;-81
2023/07/08 05:50:54;;;;;;;5.28;3.75;;;23.50;56.30;;;;;;5030396;28;20040;-81
2023/07/08 05:53:20;;;;;;;3.45;3.15;;;23.50;56.40;;;;;;5043079;28;20081;-80
2023/07/08 05:55:48;;;;;;;5.82;4.03;;;23.50;56.40;;;;;;5047806;28;20384;-80
2023/07/08 05:58:15;;;;;;;5.30;3.60;;;23.50;56.50;;;;;;5038512;28;20123;-81
2023/07/08 06:00:42;;;;;;;6.03;4.25;;;23.50;56.50;;;;;;5032632;28;20033;-79
2023/07/08 06:03:09;;;;;;;4.90;4.25;;;23.40;56.40;;;;;;5031206;28;20025;-80
2023/07/08 06:05:36;;;;;;;4.88;4.05;;;23.50;56.50;;;;;;5031021;28;20032;-81
2023/07/08 06:08:02;;;;;;;4.22;3.50;;;23.50;56.60;;;;;;5046136;28;20064;-78
2023/07/08 06:10:28;;;;;;;4.53;3.20;;;23.50;56.70;;;;;;5046926;28;20279;-79
2023/07/08 06:12:54;;;;;;;14.85;3.92;;;23.50;57.20;;;;;;5044467;28;20553;-81
2023/07/08 06:15:20;;;;;;;3.78;3.17;;;23.60;57.80;;;;;;5030298;28;20115;-81
2023/07/08 06:17:46;;;;;;;3.85;2.92;;;23.70;58.00;;;;;;5045219;28;20051;-81
2023/07/08 06:20:12;;;;;;;5.72;3.28;;;23.80;58.20;;;;;;5033291;28;20497;-83
2023/07/08 06:22:38;;;;;;;7.60;3.17;;;23.90;58.20;;;;;;5054109;28;20107;-81
2023/07/08 06:25:04;;;;;;;3.47;2.92;;;24.00;58.30;;;;;;5048791;28;20116;-82
2023/07/08 06:27:30;;;;;;;4.10;2.80;;;24.10;58.30;;;;;;5045773;28;20032;-80
2023/07/08 06:29:56;;;;;;;4.85;3.00;;;24.20;58.40;;;;;;5045205;28;20319;-78
2023/07/08 06:32:22;;;;;;;5.35;3.60;;;24.30;58.40;;;;;;5033800;28;20051;-76
2023/07/08 06:34:47;;;;;;;5.55;3.25;;;24.30;58.30;;;;;;5026574;28;20045;-78
2023/07/08 06:37:13;;;;;;;6.97;3.97;;;24.30;58.30;;;;;;5041569;28;20021;-79
2023/07/08 06:39:42;;;;;;;5.55;3.08;;;24.40;58.50;;;;;;5040958;28;20445;-78
2023/07/08 06:42:08;;;;;;;7.47;3.50;;;24.40;58.50;;;;;;5044116;28;20043;-77
2023/07/08 06:44:39;;;;;;;5.05;3.38;;;24.40;58.90;;;;;;5036212;28;20102;-76
2023/07/08 06:47:05;;;;;;;8.30;4.00;;;24.30;59.20;;;;;;5044964;28;20112;-77
2023/07/08 06:49:31;;;;;;;5.88;3.42;;;24.30;59.90;;;;;;5042209;28;20044;-79
2023/07/08 06:51:59;;;;;;;5.22;3.35;;;24.30;60.50;;;;;;5036403;28;20045;-80
2023/07/08 06:54:25;;;;;;;7.93;4.10;;;24.30;61.00;;;;;;5044826;28;20114;-76
2023/07/08 06:56:51;;;;;;;8.90;5.10;;;24.30;61.50;;;;;;5032572;28;20041;-77
2023/07/08 06:59:17;;;;;;;7.15;3.88;;;24.30;62.00;;;;;;5037324;28;20204;-82
2023/07/08 07:01:43;;;;;;;6.25;4.03;;;24.20;62.10;;;;;;5029991;28;20045;-83
2023/07/08 07:04:08;;;;;;;8.77;4.07;;;24.20;62.50;;;;;;5014817;28;20028;-82
2023/07/08 07:06:34;;;;;;;6.07;3.53;;;24.20;62.80;;;;;;5047781;28;20133;-80
2023/07/08 07:09:00;;;;;;;5.32;3.15;;;24.20;62.90;;;;;;5050945;28;20033;-79
2023/07/08 07:11:26;;;;;;;6.38;3.20;;;24.30;63.20;;;;;;5039768;28;20037;-80
2023/07/08 07:13:52;;;;;;;3.53;2.95;;;24.30;63.30;;;;;;5042446;28;20040;-80
2023/07/08 07:16:18;;;;;;;6.10;3.33;;;24.40;63.50;;;;;;5051841;28;20037;-81
2023/07/08 07:18:44;;;;;;;11.57;3.78;;;24.40;63.50;;;;;;5056227;28;20083;-83
2023/07/08 07:21:10;;;;;;;4.93;2.92;;;24.40;63.40;;;;;;5042323;28;20024;-85
2023/07/08 07:23:36;;;;;;;5.63;3.28;;;24.50;63.50;;;;;;5026451;28;20090;-81
2023/07/08 07:26:03;;;;;;;4.80;3.15;;;24.50;63.50;;;;;;5054979;28;20127;-82
2023/07/08 07:28:29;;;;;;;5.10;3.63;;;24.50;63.50;;;;;;5033866;28;20089;-85
2023/07/08 07:30:59;;;;;;;4.40;3.38;;;24.50;63.50;;;;;;5057169;28;20048;-81
2023/07/08 07:33:26;;;;;;;4.22;2.65;;;24.50;63.60;;;;;;5031317;28;20403;-81
2023/07/08 07:35:52;;;;;;;5.60;3.38;;;24.50;63.50;;;;;;5037192;28;20036;-80
2023/07/08 07:38:18;;;;;;;4.95;2.97;;;24.50;63.60;;;;;;5022223;28;20021;-80
2023/07/08 07:40:45;;;;;;;5.05;3.10;;;24.50;63.60;;;;;;5048317;28;20032;-81
2023/07/08 07:43:11;;;;;;;4.55;3.15;;;24.50;63.70;;;;;;5035842;28;20028;-80
2023/07/08 07:45:37;;;;;;;3.95;2.60;;;24.50;63.80;;;;;;5047680;28;20033;-81
2023/07/08 07:48:04;;;;;;;4.78;2.88;;;24.50;63.90;;;;;;5047893;28;20052;-81
2023/07/08 07:50:32;;;;;;;4.50;3.08;;;24.50;63.90;;;;;;5017350;28;20049;-82
2023/07/08 07:52:58;;;;;;;4.28;2.63;;;24.50;63.90;;;;;;5038036;28;20104;-81
2023/07/08 07:55:24;;;;;;;7.13;3.00;;;24.50;63.90;;;;;;5047212;28;20048;-80
2023/07/08 07:57:53;;;;;;;5.18;3.33;;;24.40;63.80;;;;;;5038673;28;20060;-80
2023/07/08 08:00:20;;;;;;;3.35;2.60;;;24.40;63.90;;;;;;5049300;28;20131;-80
2023/07/08 08:02:46;;;;;;;3.92;3.05;;;24.40;64.00;;;;;;5039364;28;20048;-77
2023/07/08 08:05:12;;;;;;;5.18;3.15;;;24.40;64.00;;;;;;5043418;28;20336;-77
2023/07/08 08:07:38;;;;;;;11.52;3.30;;;24.40;64.10;;;;;;5048135;28;20279;-77
2023/07/08 08:10:05;;;;;;;8.05;3.65;;;24.40;64.10;;;;;;5038196;28;20036;-78
2023/07/08 08:12:33;;;;;;;5.68;2.80;;;24.50;64.30;;;;;;5049713;28;20112;-78
2023/07/08 08:15:00;;;;;;;11.68;3.85;;;24.50;64.30;;;;;;5029221;28;20428;-79
2023/07/08 08:17:26;;;;;;;16.60;3.55;;;24.50;64.40;;;;;;5041277;28;20040;-81
2023/07/08 08:19:52;;;;;;;9.90;3.30;;;24.50;64.40;;;;;;5045198;28;20601;-79
2023/07/08 08:22:18;;;;;;;8.20;2.90;;;24.50;64.40;;;;;;5009948;28;20086;-79
2023/07/08 08:24:47;;;;;;;13.00;3.25;;;24.50;64.50;;;;;;5043343;28;20475;-80
2023/07/08 08:27:13;;;;;;;11.73;3.58;;;24.50;64.60;;;;;;5034935;28;20145;-81
2023/07/08 08:29:39;;;;;;;10.68;3.30;;;24.50;64.70;;;;;;5052460;28;20393;-79
2023/07/08 08:32:06;;;;;;;11.20;2.95;;;24.50;64.70;;;;;;5032215;28;20731;-81
2023/07/08 08:34:32;;;;;;;22.85;4.25;;;24.50;64.90;;;;;;5043171;28;20035;-81
2023/07/08 08:36:58;;;;;;;16.52;4.25;;;24.50;65.20;;;;;;5045390;28;20075;-80
2023/07/08 08:39:26;;;;;;;19.50;4.25;;;24.50;65.30;;;;;;5047126;28;20495;-80
2023/07/08 08:41:53;;;;;;;10.35;3.58;;;24.50;65.40;;;;;;5033502;28;20037;-81
2023/07/08 08:44:27;;;;;;;13.20;3.58;;;24.60;65.60;;;;;;5015336;28;20188;-82
2023/07/08 08:47:22;;;;;;;15.10;3.67;;;24.60;65.70;;;;;;5026043;28;20607;-79
2023/07/08 08:49:57;;;;;;;9.82;3.20;;;24.70;65.80;;;;;;5046269;28;20449;-80
2023/07/08 08:52:23;;;;;;;13.45;5.22;;;24.70;65.70;;;;;;5039136;28;20485;-81
2023/07/08 08:54:51;;;;;;;14.57;3.97;;;24.80;65.70;;;;;;5045987;28;20028;-79
2023/07/08 08:57:28;;;;;;;9.88;3.83;;;24.80;65.70;;;;;;5039341;28;20044;-79
2023/07/08 08:59:57;;;;;;;11.10;3.95;;;24.90;65.90;;;;;;5023438;28;20071;-80
2023/07/08 09:02:53;;;;;;;11.55;4.05;;;24.90;65.90;;;;;;5028147;28;20088;-82
2023/07/08 09:05:19;;;;;;;9.45;4.10;;;25.00;66.10;;;;;;5021191;28;20055;-83
2023/07/08 09:08:10;;;;;;;8.15;3.88;;;25.10;66.20;;;;;;5019184;28;20522;-79
2023/07/08 09:10:39;;;;;;;;;;;25.30;65.40;;;;;;5004967;28;20450;-79
2023/07/08 09:13:28;;;;;;;5.35;2.75;;;25.50;64.90;;;;;;5051076;28;19963;-84
2023/07/08 09:16:21;;;;;;;9.95;3.00;;;25.70;64.40;;;;;;5037091;28;20044;-87
2023/07/08 09:19:19;;;;;;;15.93;5.22;;;25.80;64.10;;;;;;5027701;28;20431;-93
2023/07/08 09:22:03;;;;;;;12.98;3.63;;;25.90;64.10;;;;;;5034419;28;20059;-84
2023/07/08 09:24:35;;;;;;;4.82;3.28;;;25.80;64.00;;;;;;5040760;28;20265;-88
2023/07/08 09:27:02;;;;;;;10.60;4.67;;;25.80;64.00;;;;;;5039840;28;20345;-83
2023/07/08 09:29:33;;;;;;;5.28;3.05;;;25.90;63.90;;;;;;5045323;28;20132;-82
2023/07/08 09:32:13;;;;;;;5.10;3.40;;;25.80;63.70;;;;;;5035768;28;20281;-82
2023/07/08 09:34:50;;;;;;;3.70;2.83;;;25.80;63.70;;;;;;5033563;28;20536;-80
2023/07/08 09:37:25;;;;;;;4.85;3.00;;;25.80;63.80;;;;;;5038790;28;20036;-82
2023/07/08 09:39:53;;;;;;;7.50;3.10;;;25.80;64.00;;;;;;5039498;28;20139;-83
2023/07/08 09:42:22;;;;;;;6.45;3.40;;;25.80;63.80;;;;;;5041789;28;20040;-86
2023/07/08 09:44:48;;;;;;;5.50;2.85;;;26.00;63.80;;;;;;5045284;28;20047;-84
2023/07/08 09:47:32;;;;;;;6.43;3.22;;;26.10;63.60;;;;;;5023240;28;20048;-85
2023/07/08 09:49:59;;;;;;;6.38;3.13;;;26.40;63.50;;;;;;5020815;28;20029;-83
2023/07/08 09:52:32;;;;;;;5.47;2.55;;;26.80;62.70;;;;;;5047643;28;20506;-84
2023/07/08 09:54:58;;;;;;;11.57;4.40;;;27.10;62.10;;;;;;5034219;28;20112;-85
2023/07/08 09:57:31;;;;;;;6.13;2.90;;;27.20;61.70;;;;;;5040773;28;20127;-78
2023/07/08 10:00:19;;;;;;;5.95;3.20;;;27.30;61.50;;;;;;5046875;28;20044;-78
2023/07/08 10:02:56;;;;;;;5.82;3.22;;;27.40;61.30;;;;;;5036258;28;20036;-80
2023/07/08 10:05:29;;;;;;;6.38;3.30;;;27.40;61.10;;;;;;5042237;28;20062;-83
2023/07/08 10:07:56;;;;;;;6.05;2.50;;;27.30;61.10;;;;;;5045745;28;20119;-86
2023/07/08 10:10:36;;;;;;;6.63;3.30;;;27.30;61.30;;;;;;5054753;28;20040;-83
2023/07/08 10:13:19;;;;;;;7.10;3.65;;;27.20;61.60;;;;;;5039423;28;20126;-83
2023/07/08 10:15:54;;;;;;;6.35;3.20;;;27.30;61.80;;;;;;5046129;28;20032;-85
2023/07/08 10:18:27;;;;;;;8.63;3.65;;;27.40;61.70;;;;;;5049288;28;20037;-82
2023/07/08 10:21:04;;;;;;;4.60;3.08;;;27.60;61.50;;;;;;5048756;28;20048;-83
2023/07/08 10:23:54;;;;;;;7.47;3.30;;;27.80;61.10;;;;;;5036133;28;20487;-82
2023/07/08 10:26:29;;;;;;;5.95;2.95;;;28.00;60.80;;;;;;5032552;28;20037;-84
2023/07/08 10:29:14;;;;;;;5.38;3.22;;;28.10;60.50;;;;;;5028565;28;20032;-81
2023/07/08 10:32:01;;;;;;;9.35;3.60;;;28.20;60.20;;;;;;5050845;28;20080;-82
2023/07/08 10:34:35;;;;;;;11.35;3.47;;;28.30;60.00;;;;;;5026970;28;20112;-80
2023/07/08 10:37:19;;;;;;;6.40;3.55;;;28.30;59.80;;;;;;5027931;28;20591;-80
2023/07/08 10:39:54;;;;;;;6.10;3.80;;;28.50;59.70;;;;;;5038025;28;20040;-79
2023/07/08 10:42:29;;;;;;;7.47;3.55;;;28.60;59.40;;;;;;5050763;28;20032;-82
2023/07/08 10:45:10;;;;;;;9.50;3.83;;;28.60;59.10;;;;;;5046926;28;20782;-81
2023/07/08 10:48:11;;;;;;;8.43;4.20;;;28.80;58.90;;;;;;5033525;28;20112;-81
2023/07/08 10:50:46;;;;;;;9.20;3.45;;;28.90;58.70;;;;;;5029435;28;20045;-79
2023/07/08 10:53:41;;;;;;;10.05;3.92;;;29.20;58.40;;;;;;5033898;28;20060;-79
2023/07/08 10:56:38;;;;;;;7.88;3.75;;;29.70;57.70;;;;;;5042425;28;20045;-80
2023/07/08 10:59:37;;;;;;;7.63;3.72;;;30.10;57.00;;;;;;5007378;28;20124;-79
2023/07/08 11:02:38;;;;;;;8.43;4.05;;;30.40;56.20;;;;;;5001774;28;20041;-80
2023/07/08 11:05:31;;;;;;;13.30;3.90;;;30.70;55.60;;;;;;5029011;28;20559;-80
2023/07/08 11:08:11;;;;;;;5.75;3.17;;;30.80;55.30;;;;;;5013605;28;20041;-78
2023/07/08 11:10:48;;;;;;;9.65;3.88;;;30.80;55.00;;;;;;5040645;28;20143;-78
2023/07/08 11:13:18;;;;;;;6.32;3.25;;;30.60;54.80;;;;;;5033867;28;20029;-82
2023/07/08 11:15:57;;;;;;;6.53;2.97;;;30.50;55.00;;;;;;5057713;28;20032;-82
2023/07/08 11:18:42;;;;;;;8.50;3.50;;;30.30;55.20;;;;;;5031713;28;20077;-81
2023/07/08 11:21:35;;;;;;;9.70;4.00;;;30.20;55.50;;;;;;5025714;28;20036;-78
2023/07/08 11:24:20;;;;;;;6.22;3.15;;;30.10;55.70;;;;;;5044567;28;20900;-79
2023/07/08 11:27:00;;;;;;;7.25;3.42;;;30.10;55.80;;;;;;5056871;28;20207;-81
2023/07/08 11:29:39;;;;;;;7.72;3.47;;;30.10;55.60;;;;;;5058297;28;20515;-81
2023/07/08 11:32:09;;;;;;;5.53;2.83;;;30.20;55.40;;;;;;5059393;28;20825;-81
2023/07/08 11:34:38;;;;;;;10.95;3.97;;;30.40;55.20;;;;;;5043544;28;20400;-82
2023/07/08 11:37:08;;;;;;;8.52;3.38;;;30.80;54.60;;;;;;5049930;28;20037;-81
2023/07/08 11:39:46;;;;;;;8.18;3.03;;;31.20;53.80;;;;;;5046028;28;20512;-80
2023/07/08 11:42:41;;;;;;;5.72;2.90;;;31.50;53.20;;;;;;5035131;28;20025;-80
2023/07/08 11:45:37;;;;;;;6.50;2.75;;;31.70;52.50;;;;;;5028109;28;20510;-80
2023/07/08 11:48:16;;;;;;;4.45;2.78;;;31.70;52.20;;;;;;5029802;28;20083;-79
2023/07/08 11:50:48;;;;;;;6.38;3.35;;;31.50;52.10;;;;;;5013026;28;20056;-80
2023/07/08 11:53:33;;;;;;;6.85;3.55;;;31.40;52.10;;;;;;5035579;28;20032;-80
2023/07/08 11:56:11;;;;;;;6.35;3.33;;;31.30;52.00;;;;;;5047411;28;20711;-78
2023/07/08 11:58:50;;;;;;;7.38;3.00;;;31.20;52.20;;;;;;5044947;28;20439;-82
2023/07/08 12:01:28;;;;;;;7.05;3.40;;;31.00;52.10;;;;;;5027550;28;20061;-78
2023/07/08 12:04:17;;;;;;;19.00;3.92;;;30.90;52.20;;;;;;5035291;28;20041;-84
2023/07/08 12:06:48;;;;;;;10.90;3.70;;;30.80;52.30;;;;;;5041690;28;20055;-83
2023/07/08 12:09:30;;;;;;;9.38;3.75;;;30.60;52.60;;;;;;5050975;28;20405;-82
2023/07/08 12:12:01;;;;;;;10.25;3.30;;;30.30;53.20;;;;;;5041272;28;20970;-82
2023/07/08 12:14:28;;;;;;;13.18;4.18;;;30.00;53.50;;;;;;5047663;28;20025;-82
2023/07/08 12:16:55;;;;;;;7.53;3.22;;;29.70;54.10;;;;;;5052378;28;20060;-80
2023/07/08 12:19:28;;;;;;;9.23;2.90;;;29.50;54.80;;;;;;5032098;28;20045;-78
2023/07/08 12:21:55;;;;;;;8.50;4.00;;;29.30;55.30;;;;;;5037262;28;20036;-81
2023/07/08 12:24:26;;;;;;;7.72;2.90;;;29.10;55.70;;;;;;5036306;28;20036;-80
2023/07/08 12:26:55;;;;;;;10.70;3.72;;;28.90;56.70;;;;;;5037653;28;20098;-84
2023/07/08 12:29:22;;;;;;;5.55;2.90;;;28.80;56.50;;;;;;5042722;28;20231;-81
2023/07/08 12:31:49;;;;;;;5.68;3.08;;;28.70;56.90;;;;;;5043022;28;20249;-79
2023/07/08 12:34:18;;;;;;;6.88;3.10;;;28.60;57.30;;;;;;5037175;28;20455;-79
2023/07/08 12:36:46;;;;;;;5.38;2.58;;;28.50;57.70;;;;;;5058212;28;20040;-79
2023/07/08 12:39:15;;;;;;;8.40;3.47;;;28.40;58.20;;;;;;5040958;28;20044;-78
2023/07/08 12:41:42;;;;;;;6.32;3.30;;;28.30;58.50;;;;;;5041993;28;20439;-79
2023/07/08 12:44:19;;;;;;;6.95;3.85;;;28.30;58.90;;;;;;5052740;28;20037;-80
2023/07/08 12:46:47;;;;;;;5.88;3.40;;;28.20;59.20;;;;;;5019420;28;20578;-80
2023/07/08 12:49:15;;;;;;;4.97;2.63;;;28.30;59.30;;;;;;5059740;28;20505;-83
2023/07/08 12:51:44;;;;;;;6.47;2.90;;;28.40;59.50;;;;;;5042825;28;20028;-83
2023/07/08 12:54:11;;;;;;;6.35;2.80;;;28.50;59.70;;;;;;5037978;28;20111;-81
2023/07/08 12:56:40;;;;;;;6.32;3.05;;;28.50;59.90;;;;;;5028687;28;20504;-80
2023/07/08 12:59:07;;;;;;;6.57;3.10;;;28.60;60.00;;;;;;5022779;28;20046;-79
2023/07/08 13:01:35;;;;;;;10.30;4.10;;;28.70;60.20;;;;;;5059504;28;20048;-79
2023/07/08 13:04:04;;;;;;;6.47;3.35;;;28.80;60.10;;;;;;5049561;28;20036;-78